Time;durP1;ratioP1;P1;durP2;ratioP2;P2;SDS_P1;SDS_P2;PMS_P1;PMS_P2;Temp;Humidity;BMP_temperature;BMP_pressure;BME280_temperature;BME280_humidity;BME280_pressure;Samples;Min_cycle;Max_cycle;Signal;HPM_P1;HPM_P2
2023/05/14 00:00:22;;;;;;;174.43;68.43;;;12.00;99.90;;;;;;4832943;29;20226;-64
2023/05/14 00:02:50;;;;;;;178.23;69.77;;;12.00;99.90;;;;;;4846310;29;20594;-63
2023/05/14 00:05:19;;;;;;;178.87;67.30;;;12.00;99.90;;;;;;4833166;29;20288;-63
2023/05/14 00:07:48;;;;;;;174.90;67.33;;;12.00;99.90;;;;;;4833607;29;20225;-63
2023/05/14 00:10:17;;;;;;;175.87;70.30;;;12.00;99.90;;;;;;4846323;29;20223;-63
2023/05/14 00:13:24;;;;;;;192.50;73.47;;;12.00;99.90;;;;;;4843387;29;20235;-63
2023/05/14 00:15:52;;;;;;;204.83;78.80;;;12.00;99.90;;;;;;4827334;29;20277;-63
2023/05/14 00:18:20;;;;;;;207.77;80.87;;;12.00;99.90;;;;;;4841540;29;20645;-63
2023/05/14 00:20:53;;;;;;;203.17;79.80;;;12.00;99.90;;;;;;4815039;29;20229;-64
2023/05/14 00:23:23;;;;;;;216.63;79.93;;;12.00;99.90;;;;;;4833261;29;20624;-63
2023/05/14 00:25:51;;;;;;;222.40;81.27;;;12.00;99.90;;;;;;4835264;29;20285;-64
2023/05/14 00:28:20;;;;;;;198.13;80.13;;;12.00;99.90;;;;;;4831400;29;20276;-64
2023/05/14 00:30:48;;;;;;;208.37;80.23;;;12.00;99.90;;;;;;4823884;29;20244;-63
2023/05/14 00:33:16;;;;;;;212.67;76.47;;;12.00;99.90;;;;;;4839011;29;20284;-63
2023/05/14 00:35:44;;;;;;;195.67;75.83;;;12.10;99.90;;;;;;4839857;29;20220;-64
2023/05/14 00:38:16;;;;;;;197.10;74.97;;;12.10;99.90;;;;;;4831435;29;20652;-63
2023/05/14 00:40:50;;;;;;;193.03;74.77;;;12.10;99.90;;;;;;4829558;29;20221;-64
2023/05/14 00:43:18;;;;;;;183.90;72.60;;;12.10;99.90;;;;;;4836161;29;20243;-63
2023/05/14 00:45:49;;;;;;;202.70;75.37;;;12.10;99.90;;;;;;4828385;29;20281;-62
2023/05/14 00:48:18;;;;;;;194.97;74.93;;;12.10;99.90;;;;;;4833295;29;20663;-62
2023/05/14 00:50:46;;;;;;;204.30;75.57;;;12.10;99.90;;;;;;4827527;29;20225;-63
2023/05/14 00:53:15;;;;;;;194.03;73.83;;;12.10;99.90;;;;;;4834753;29;20224;-63
2023/05/14 00:55:43;;;;;;;189.33;71.77;;;12.10;99.90;;;;;;4843022;29;20296;-63
2023/05/14 00:58:13;;;;;;;191.73;72.93;;;12.10;99.90;;;;;;4836507;29;20272;-63
2023/05/14 01:04:28;;;;;;;188.10;72.03;;;12.10;99.90;;;;;;5557469;24;20235;-62
2023/05/14 01:07:08;;;;;;;182.93;74.07;;;12.10;99.90;;;;;;4855968;29;20227;-62
2023/05/14 01:09:47;;;;;;;193.50;75.40;;;12.10;99.90;;;;;;4856809;29;20660;-63
2023/05/14 01:12:21;;;;;;;182.20;69.47;;;12.10;99.90;;;;;;4860285;29;20252;-63
2023/05/14 01:15:00;;;;;;;186.10;71.27;;;12.10;99.90;;;;;;4850762;29;20228;-63
2023/05/14 01:17:32;;;;;;;189.23;73.73;;;12.20;99.90;;;;;;4856950;29;20223;-63
2023/05/14 01:20:01;;;;;;;181.30;72.97;;;12.20;99.90;;;;;;4853276;29;20231;-62
2023/05/14 01:22:30;;;;;;;196.27;74.00;;;12.20;99.90;;;;;;4858912;29;20243;-62
2023/05/14 01:24:59;;;;;;;187.67;75.13;;;12.10;99.90;;;;;;4870269;29;20245;-62
2023/05/14 01:27:38;;;;;;;197.10;76.73;;;12.10;99.90;;;;;;4857944;29;20639;-62
2023/05/14 01:30:29;;;;;;;190.43;75.03;;;12.10;99.90;;;;;;4862417;29;20194;-62
2023/05/14 01:33:00;;;;;;;184.60;74.33;;;12.10;99.90;;;;;;4864066;29;20226;-62
2023/05/14 01:35:31;;;;;;;190.00;76.27;;;12.20;99.90;;;;;;4857457;29;20240;-63
2023/05/14 01:38:02;;;;;;;178.70;74.37;;;12.10;99.90;;;;;;4847491;29;20283;-63
2023/05/14 01:40:32;;;;;;;174.20;68.60;;;12.20;99.90;;;;;;4862996;29;20290;-63
2023/05/14 01:43:02;;;;;;;164.97;71.13;;;12.20;99.90;;;;;;4855790;29;20375;-63
2023/05/14 01:45:31;;;;;;;175.47;72.83;;;12.10;99.90;;;;;;4855461;29;20642;-63
2023/05/14 01:47:59;;;;;;;192.63;76.57;;;12.20;99.90;;;;;;4861875;29;20207;-63
2023/05/14 01:50:27;;;;;;;204.47;80.80;;;12.20;99.90;;;;;;4857915;29;20231;-62
2023/05/14 01:52:55;;;;;;;193.07;79.13;;;12.20;99.90;;;;;;4857976;29;20806;-63
2023/05/14 01:55:25;;;;;;;198.63;81.17;;;12.20;99.90;;;;;;4855906;29;20231;-62
2023/05/14 01:57:54;;;;;;;211.93;81.97;;;12.20;99.90;;;;;;4858927;29;20218;-62
2023/05/14 02:00:24;;;;;;;188.53;78.73;;;12.30;99.90;;;;;;4854394;29;20574;-62
2023/05/14 02:02:53;;;;;;;217.43;84.03;;;12.20;99.90;;;;;;4853027;29;20247;-63
2023/05/14 02:05:21;;;;;;;207.20;81.90;;;12.30;99.90;;;;;;4857099;29;20243;-63
2023/05/14 02:07:50;;;;;;;206.90;82.50;;;12.20;99.90;;;;;;4855956;29;20238;-62
2023/05/14 02:10:18;;;;;;;202.23;78.30;;;12.20;99.90;;;;;;4854896;29;20223;-62
2023/05/14 02:12:47;;;;;;;174.97;71.27;;;12.20;99.90;;;;;;4852989;29;20218;-63
2023/05/14 02:15:16;;;;;;;162.13;68.43;;;12.20;99.90;;;;;;4850358;29;20247;-63
2023/05/14 02:17:44;;;;;;;160.03;66.83;;;12.20;99.90;;;;;;4861030;29;20275;-62
2023/05/14 02:20:13;;;;;;;185.57;72.67;;;12.20;99.90;;;;;;4852197;29;20219;-62
2023/05/14 02:22:44;;;;;;;174.57;70.53;;;12.20;99.90;;;;;;4849128;29;20250;-62
2023/05/14 02:25:32;;;;;;;168.03;70.77;;;12.20;99.90;;;;;;4847964;29;20243;-63
2023/05/14 02:28:01;;;;;;;168.20;69.97;;;12.20;99.90;;;;;;4851888;29;20223;-63
2023/05/14 02:30:48;;;;;;;172.37;69.47;;;12.20;99.90;;;;;;4847129;29;20656;-62
2023/05/14 02:33:16;;;;;;;160.13;65.50;;;12.20;99.90;;;;;;4847948;29;20204;-63
2023/05/14 02:35:44;;;;;;;148.53;63.57;;;12.20;99.90;;;;;;4845848;29;20259;-62
2023/05/14 02:38:12;;;;;;;144.90;60.63;;;12.20;99.90;;;;;;4856961;29;20697;-63
2023/05/14 02:40:40;;;;;;;150.27;61.20;;;12.20;99.90;;;;;;4853931;29;20216;-63
2023/05/14 02:43:10;;;;;;;130.90;55.53;;;12.20;99.90;;;;;;4849252;29;20368;-63
2023/05/14 02:45:40;;;;;;;122.03;52.13;;;12.20;99.90;;;;;;4858351;29;20230;-62
2023/05/14 02:48:08;;;;;;;125.83;55.60;;;12.20;99.90;;;;;;4852463;29;20192;-62
2023/05/14 02:50:37;;;;;;;125.67;55.60;;;12.10;99.90;;;;;;4868899;29;20228;-62
2023/05/14 02:53:05;;;;;;;120.33;53.77;;;12.10;99.90;;;;;;4850065;29;20220;-62
2023/05/14 02:55:33;;;;;;;126.93;54.17;;;12.20;99.90;;;;;;4858137;29;20291;-63
2023/05/14 02:58:01;;;;;;;115.63;50.40;;;12.20;99.90;;;;;;4857808;29;20223;-65
2023/05/14 03:00:30;;;;;;;108.00;45.93;;;12.20;99.90;;;;;;4852069;29;21081;-62
2023/05/14 03:02:59;;;;;;;114.17;45.97;;;12.20;99.90;;;;;;4848983;29;20233;-63
2023/05/14 03:05:27;;;;;;;98.30;42.83;;;12.20;99.90;;;;;;4852236;29;20762;-62
2023/05/14 03:07:56;;;;;;;104.43;45.43;;;12.20;99.90;;;;;;4851417;29;20224;-63
2023/05/14 03:10:24;;;;;;;94.57;43.60;;;12.20;99.90;;;;;;4855863;29;20253;-62
2023/05/14 03:12:53;;;;;;;101.90;44.87;;;12.10;99.90;;;;;;4852185;29;20250;-62
2023/05/14 03:15:22;;;;;;;112.10;47.73;;;12.10;99.90;;;;;;4850009;29;20251;-61
2023/05/14 03:18:12;;;;;;;111.93;47.67;;;12.10;99.90;;;;;;4854166;29;20196;-62
2023/05/14 03:21:02;;;;;;;115.80;49.60;;;12.10;99.90;;;;;;4851023;29;20308;-62
2023/05/14 03:23:34;;;;;;;121.57;51.13;;;12.20;99.90;;;;;;4858719;29;20998;-63
2023/05/14 03:26:03;;;;;;;126.63;52.27;;;12.20;99.90;;;;;;4857989;29;20277;-62
2023/05/14 03:28:31;;;;;;;135.50;55.20;;;12.20;99.90;;;;;;4852255;29;20794;-62
2023/05/14 03:31:00;;;;;;;139.07;56.13;;;12.20;99.90;;;;;;4861694;29;20628;-63
2023/05/14 03:37:11;;;;;;;140.93;57.93;;;12.20;99.90;;;;;;4851199;29;20348;-62
2023/05/14 03:39:42;;;;;;;155.20;62.80;;;12.20;99.90;;;;;;4852678;29;20207;-63
2023/05/14 03:42:10;;;;;;;177.47;68.93;;;12.20;99.90;;;;;;4852440;29;20623;-62
2023/05/14 03:44:38;;;;;;;184.63;70.73;;;12.20;99.90;;;;;;4852254;29;20691;-62
2023/05/14 03:47:26;;;;;;;187.07;74.33;;;12.20;99.90;;;;;;4852230;29;20223;-62
2023/05/14 03:50:13;;;;;;;194.37;74.33;;;12.20;99.90;;;;;;4859214;29;20215;-62
2023/05/14 03:53:18;;;;;;;184.30;72.07;;;12.20;99.90;;;;;;4853594;29;20278;-62
2023/05/14 03:56:07;;;;;;;192.50;73.70;;;12.20;99.90;;;;;;4847864;29;20224;-62
2023/05/14 03:58:35;;;;;;;189.10;72.87;;;12.20;99.90;;;;;;4846980;29;20228;-63
2023/05/14 04:01:03;;;;;;;194.07;74.87;;;12.20;99.90;;;;;;4855051;29;20288;-62
2023/05/14 04:10:37;;;;;;;173.43;67.20;;;12.20;99.90;;;;;;4860352;29;20227;-63
2023/05/14 04:13:07;;;;;;;174.33;69.10;;;12.20;99.90;;;;;;4858117;29;20223;-62
2023/05/14 04:15:38;;;;;;;168.53;66.77;;;12.20;99.90;;;;;;4865947;29;20222;-62
2023/05/14 04:18:07;;;;;;;170.30;66.13;;;12.20;99.90;;;;;;4851847;29;22143;-63
2023/05/14 04:20:35;;;;;;;162.80;63.70;;;12.20;99.90;;;;;;4861097;29;20225;-63
2023/05/14 04:23:03;;;;;;;168.13;64.77;;;12.20;99.90;;;;;;4860770;29;20241;-62
2023/05/14 04:25:32;;;;;;;163.00;65.97;;;12.20;99.90;;;;;;4847822;29;20765;-62
2023/05/14 04:28:00;;;;;;;162.87;65.70;;;12.20;99.90;;;;;;4847207;29;20227;-62
2023/05/14 04:30:30;;;;;;;155.83;62.20;;;12.20;99.90;;;;;;4849500;29;20540;-62
2023/05/14 04:32:58;;;;;;;167.57;65.80;;;12.10;99.90;;;;;;4861661;29;20650;-62
2023/05/14 04:35:26;;;;;;;161.27;62.80;;;12.10;99.90;;;;;;4836614;29;20232;-62
2023/05/14 04:37:54;;;;;;;149.80;61.47;;;12.10;99.90;;;;;;4850675;29;20224;-63
2023/05/14 04:40:22;;;;;;;152.27;60.10;;;12.10;99.90;;;;;;4850350;29;20235;-63
2023/05/14 04:42:51;;;;;;;147.37;60.47;;;12.20;99.90;;;;;;4852458;29;20227;-62
2023/05/14 04:45:19;;;;;;;133.77;54.03;;;12.10;99.90;;;;;;4832260;29;20204;-62
2023/05/14 04:48:25;;;;;;;123.10;52.50;;;12.10;99.90;;;;;;4848027;29;20218;-62
2023/05/14 04:50:54;;;;;;;128.13;53.50;;;12.10;99.90;;;;;;4847336;29;20647;-62
2023/05/14 04:53:23;;;;;;;136.73;52.97;;;12.20;99.90;;;;;;4849480;29;20228;-62
2023/05/14 04:55:51;;;;;;;135.00;54.60;;;12.20;99.90;;;;;;4835788;29;20275;-62
2023/05/14 04:58:19;;;;;;;141.60;55.33;;;12.20;99.90;;;;;;4846253;29;20227;-62
2023/05/14 05:00:47;;;;;;;143.80;55.83;;;12.20;99.90;;;;;;4846791;29;20223;-62
2023/05/14 05:03:15;;;;;;;149.63;55.60;;;12.20;99.90;;;;;;4864840;29;20218;-62
2023/05/14 05:05:44;;;;;;;155.03;57.07;;;12.20;99.90;;;;;;4851917;29;20236;-63
2023/05/14 05:08:13;;;;;;;165.40;61.67;;;12.20;99.90;;;;;;4852985;29;20839;-63
2023/05/14 05:10:42;;;;;;;171.73;65.33;;;12.20;99.90;;;;;;4852227;29;20694;-62
2023/05/14 05:13:11;;;;;;;157.80;59.83;;;12.30;99.90;;;;;;4853611;29;20231;-62
2023/05/14 05:15:39;;;;;;;150.17;57.13;;;12.30;99.90;;;;;;4853263;29;20274;-63
2023/05/14 05:18:07;;;;;;;148.80;57.57;;;12.30;99.90;;;;;;4859104;29;20204;-63
2023/05/14 05:20:35;;;;;;;147.47;57.23;;;12.20;99.90;;;;;;4857850;29;20589;-62
2023/05/14 05:23:03;;;;;;;166.07;59.67;;;12.20;99.90;;;;;;4853096;29;20227;-62
2023/05/14 05:25:33;;;;;;;216.93;76.97;;;12.30;99.90;;;;;;4851098;29;20261;-63
2023/05/14 05:28:01;;;;;;;234.00;81.53;;;12.20;99.90;;;;;;4851886;29;20223;-62
2023/05/14 05:31:06;;;;;;;239.47;83.23;;;12.20;99.90;;;;;;4856129;29;20663;-62
2023/05/14 05:33:54;;;;;;;235.27;78.43;;;12.20;99.90;;;;;;4847876;29;20652;-62
2023/05/14 05:37:00;;;;;;;235.70;77.53;;;12.20;99.90;;;;;;4854718;29;20261;-62
2023/05/14 05:39:33;;;;;;;232.07;78.47;;;12.20;99.90;;;;;;4832548;29;20651;-62
2023/05/14 05:45:27;;;;;;;211.10;73.80;;;12.10;99.90;;;;;;4852335;29;20220;-63
2023/05/14 05:47:55;;;;;;;225.83;77.23;;;12.10;99.90;;;;;;4856026;29;20207;-62
2023/05/14 05:50:25;;;;;;;215.90;73.97;;;12.10;99.90;;;;;;4851774;29;20482;-63
2023/05/14 05:52:53;;;;;;;222.57;77.17;;;12.10;99.90;;;;;;4868911;29;20282;-63
2023/05/14 05:55:21;;;;;;;209.90;77.50;;;12.10;99.90;;;;;;4853912;29;20296;-62
2023/05/14 05:57:49;;;;;;;209.63;75.07;;;12.10;99.90;;;;;;4847164;29;20731;-63
2023/05/14 06:00:19;;;;;;;199.10;73.60;;;12.20;99.90;;;;;;4862865;29;20620;-62
2023/05/14 06:02:49;;;;;;;195.63;73.17;;;12.20;99.90;;;;;;4836404;29;21991;-63
2023/05/14 06:05:18;;;;;;;191.13;73.33;;;12.20;99.90;;;;;;4837113;29;20242;-63
2023/05/14 06:07:46;;;;;;;190.43;68.77;;;12.30;99.90;;;;;;4859970;29;20552;-62
2023/05/14 06:10:14;;;;;;;162.17;64.53;;;12.30;99.90;;;;;;4859146;29;20228;-63
2023/05/14 06:12:45;;;;;;;164.40;63.23;;;12.30;99.90;;;;;;4862711;29;20231;-62
2023/05/14 06:15:14;;;;;;;163.13;63.00;;;12.30;99.90;;;;;;4863954;29;20274;-62
2023/05/14 06:17:42;;;;;;;166.47;63.03;;;12.30;99.90;;;;;;4850812;29;20280;-62
2023/05/14 06:20:12;;;;;;;152.13;60.27;;;12.30;99.90;;;;;;4850984;29;20227;-63
2023/05/14 06:22:40;;;;;;;165.83;60.93;;;12.40;99.90;;;;;;4858349;29;20317;-62
2023/05/14 06:25:10;;;;;;;156.97;60.97;;;12.40;99.90;;;;;;4859066;29;20284;-62
2023/05/14 06:27:38;;;;;;;177.33;64.53;;;12.30;99.90;;;;;;4864414;29;20270;-63
2023/05/14 06:30:07;;;;;;;169.10;62.57;;;12.30;99.90;;;;;;4854993;29;20200;-63
2023/05/14 06:32:35;;;;;;;164.10;61.13;;;12.30;99.90;;;;;;4847582;29;20284;-63
2023/05/14 06:35:04;;;;;;;170.33;61.87;;;12.30;99.90;;;;;;4854478;29;20223;-63
2023/05/14 06:37:33;;;;;;;147.97;58.87;;;12.40;99.90;;;;;;4854716;29;20243;-62
2023/05/14 06:40:02;;;;;;;137.37;56.40;;;12.50;99.90;;;;;;4855654;29;20292;-63
2023/05/14 06:42:33;;;;;;;134.43;52.87;;;12.40;99.90;;;;;;4852993;29;20235;-63
2023/05/14 06:45:02;;;;;;;110.33;49.37;;;12.40;99.90;;;;;;4849303;29;20241;-62
2023/05/14 06:47:30;;;;;;;116.50;50.17;;;12.50;99.90;;;;;;4857129;29;20272;-63
2023/05/14 06:50:00;;;;;;;123.90;49.73;;;12.50;99.90;;;;;;4856734;29;20224;-63
2023/05/14 06:52:28;;;;;;;117.60;51.33;;;12.60;99.90;;;;;;4858446;29;20563;-63
2023/05/14 06:54:57;;;;;;;108.83;48.70;;;12.60;99.90;;;;;;4851583;29;20639;-63
2023/05/14 06:57:26;;;;;;;114.80;48.07;;;12.60;99.90;;;;;;4859590;29;20216;-63
2023/05/14 06:59:54;;;;;;;95.77;45.30;;;12.60;99.90;;;;;;4846475;29;20229;-63
2023/05/14 07:02:22;;;;;;;93.60;43.23;;;12.70;99.90;;;;;;4855505;29;20232;-62
2023/05/14 07:04:50;;;;;;;88.97;40.90;;;12.60;99.90;;;;;;4844463;29;20228;-63
2023/05/14 07:07:20;;;;;;;81.67;39.03;;;12.60;99.90;;;;;;4857146;29;20235;-62
2023/05/14 07:09:48;;;;;;;83.30;40.67;;;12.60;99.90;;;;;;4854659;29;20234;-63
2023/05/14 07:12:17;;;;;;;81.70;39.87;;;12.60;99.90;;;;;;4850221;29;20232;-63
2023/05/14 07:14:46;;;;;;;88.50;42.07;;;12.60;99.90;;;;;;4861818;29;20220;-63
2023/05/14 07:17:14;;;;;;;83.50;40.03;;;12.70;99.90;;;;;;4861977;29;20751;-63
2023/05/14 07:19:42;;;;;;;83.27;40.63;;;12.80;99.90;;;;;;4853437;29;20627;-62
2023/05/14 07:22:10;;;;;;;84.37;40.67;;;12.80;99.90;;;;;;4847577;29;20770;-62
2023/05/14 07:24:38;;;;;;;77.70;39.73;;;12.80;99.90;;;;;;4873379;29;20638;-62
2023/05/14 07:27:07;;;;;;;75.10;39.63;;;12.80;99.90;;;;;;4870262;29;20239;-63
2023/05/14 07:29:37;;;;;;;81.63;40.70;;;12.90;99.90;;;;;;4847411;29;20236;-62
2023/05/14 07:32:05;;;;;;;83.63;41.70;;;12.90;99.90;;;;;;4854438;29;20224;-63
2023/05/14 07:34:33;;;;;;;81.20;40.47;;;13.00;99.90;;;;;;4855014;29;20263;-63
2023/05/14 07:37:02;;;;;;;77.97;40.70;;;13.00;99.90;;;;;;4865963;29;20223;-62
2023/05/14 07:39:30;;;;;;;87.63;40.63;;;13.10;99.90;;;;;;4846867;29;20199;-64
2023/05/14 07:41:58;;;;;;;83.67;41.90;;;13.10;99.90;;;;;;4858125;29;20200;-63
2023/05/14 07:44:27;;;;;;;78.63;40.10;;;13.10;99.90;;;;;;4868242;29;20279;-62
2023/05/14 07:46:56;;;;;;;82.33;41.30;;;13.10;99.90;;;;;;4850884;29;20220;-62
2023/05/14 07:49:24;;;;;;;77.20;40.13;;;13.10;99.90;;;;;;4856078;29;20234;-63
2023/05/14 07:51:53;;;;;;;78.67;40.80;;;13.00;99.90;;;;;;4850987;29;20228;-62
2023/05/14 07:54:21;;;;;;;76.17;41.23;;;13.00;99.90;;;;;;4840652;29;20218;-63
2023/05/14 07:56:49;;;;;;;71.20;41.10;;;13.00;99.90;;;;;;4857604;29;20231;-62
2023/05/14 07:59:17;;;;;;;69.17;39.77;;;13.00;99.90;;;;;;4843389;29;20236;-62
2023/05/14 08:01:45;;;;;;;69.37;39.00;;;13.10;99.90;;;;;;4858197;29;20224;-63
2023/05/14 08:04:15;;;;;;;77.63;40.20;;;13.10;99.90;;;;;;4849183;29;20233;-62
2023/05/14 08:06:44;;;;;;;69.67;38.67;;;13.20;99.90;;;;;;4845548;29;20234;-62
2023/05/14 08:09:12;;;;;;;74.23;39.83;;;13.30;99.90;;;;;;4857823;29;20249;-63
2023/05/14 08:11:40;;;;;;;61.40;36.07;;;13.40;99.90;;;;;;4856825;29;20782;-62
2023/05/14 08:14:08;;;;;;;67.90;38.93;;;13.40;99.90;;;;;;4852765;29;20216;-63
2023/05/14 08:16:37;;;;;;;69.00;38.77;;;13.50;99.90;;;;;;4846725;29;20735;-63
2023/05/14 08:19:05;;;;;;;60.10;36.57;;;13.70;99.90;;;;;;4847152;29;20231;-63
2023/05/14 08:21:35;;;;;;;70.17;39.23;;;13.80;99.90;;;;;;4872124;29;20292;-63
2023/05/14 08:24:05;;;;;;;72.40;40.03;;;13.80;99.90;;;;;;4867822;29;20672;-63
2023/05/14 08:26:33;;;;;;;68.17;40.47;;;13.70;99.90;;;;;;4851039;29;20291;-62
2023/05/14 08:29:02;;;;;;;64.67;37.70;;;13.70;99.90;;;;;;4852386;29;20242;-62
2023/05/14 08:31:30;;;;;;;61.60;35.90;;;13.70;99.90;;;;;;4851914;29;20232;-63
2023/05/14 08:33:58;;;;;;;55.00;35.23;;;13.80;99.90;;;;;;4857254;29;20236;-62
2023/05/14 08:36:27;;;;;;;63.77;35.63;;;13.90;99.90;;;;;;4861730;29;20215;-62
2023/05/14 08:38:56;;;;;;;60.17;36.13;;;14.00;99.90;;;;;;4869262;29;20678;-63
2023/05/14 08:41:25;;;;;;;61.03;35.73;;;14.10;98.70;;;;;;4856103;29;20287;-63
2023/05/14 08:44:02;;;;;;;62.43;38.23;;;14.20;99.50;;;;;;4857980;29;20712;-62
2023/05/14 08:46:31;;;;;;;59.37;35.33;;;14.30;98.80;;;;;;4848239;29;20693;-63
2023/05/14 08:49:09;;;;;;;80.23;42.30;;;14.60;98.40;;;;;;4861709;29;20223;-63
2023/05/14 08:51:38;;;;;;;92.13;48.87;;;14.70;93.30;;;;;;4847019;29;20600;-63
2023/05/14 08:54:07;;;;;;;101.33;49.47;;;14.70;81.30;;;;;;4866174;29;20221;-63
2023/05/14 08:56:36;;;;;;;98.73;50.63;;;14.50;87.40;;;;;;4851222;29;20232;-63
2023/05/14 08:59:05;;;;;;;95.93;49.67;;;14.40;97.30;;;;;;4857536;29;20239;-62
2023/05/14 09:01:33;;;;;;;93.87;48.63;;;14.40;96.70;;;;;;4848663;29;20220;-64
2023/05/14 09:04:05;;;;;;;101.50;51.20;;;14.50;96.60;;;;;;4861212;29;20234;-63
2023/05/14 09:06:36;;;;;;;106.80;53.13;;;14.70;97.20;;;;;;4844956;29;20236;-64
2023/05/14 09:09:05;;;;;;;98.57;50.93;;;14.90;92.70;;;;;;4854881;29;20232;-64
2023/05/14 09:11:40;;;;;;;87.57;48.40;;;15.00;85.80;;;;;;4867451;29;20243;-63
2023/05/14 09:14:08;;;;;;;81.83;42.80;;;15.20;74.80;;;;;;4856368;29;20231;-63
2023/05/14 09:16:38;;;;;;;82.30;44.33;;;15.30;60.80;;;;;;4854840;29;20277;-64
2023/05/14 09:19:07;;;;;;;69.40;40.13;;;15.30;50.70;;;;;;4853036;29;20250;-64
2023/05/14 09:21:36;;;;;;;71.40;39.40;;;15.40;66.20;;;;;;4859551;29;20198;-64
2023/05/14 09:24:05;;;;;;;69.53;40.63;;;15.60;55.60;;;;;;4857290;29;20263;-64
2023/05/14 09:26:35;;;;;;;63.07;39.37;;;15.80;42.40;;;;;;4859449;29;20238;-64
2023/05/14 09:29:03;;;;;;;59.70;36.50;;;15.70;39.40;;;;;;4850050;29;20256;-63
2023/05/14 09:31:33;;;;;;;49.27;30.50;;;15.80;37.70;;;;;;4846257;29;20222;-63
2023/05/14 09:34:01;;;;;;;37.90;27.23;;;15.80;30.80;;;;;;4853723;29;20695;-64
2023/05/14 09:36:29;;;;;;;35.57;26.13;;;16.20;26.00;;;;;;4850911;29;20619;-64
2023/05/14 09:38:58;;;;;;;43.47;27.00;;;17.20;5.50;;;;;;4846423;29;20224;-63
2023/05/14 09:41:26;;;;;;;42.93;26.17;;;18.20;1.00;;;;;;4844619;29;20224;-63
2023/05/14 09:43:56;;;;;;;37.07;25.57;;;18.70;1.00;;;;;;4855943;29;20268;-64
2023/05/14 09:46:28;;;;;;;47.13;27.60;;;19.00;1.00;;;;;;4853605;29;20232;-64
2023/05/14 09:48:57;;;;;;;48.77;32.10;;;19.00;1.00;;;;;;4849809;29;20235;-65
2023/05/14 09:51:26;;;;;;;59.73;38.20;;;19.10;1.00;;;;;;4847485;29;20942;-64
2023/05/14 09:53:55;;;;;;;64.97;39.00;;;18.80;1.00;;;;;;4856550;29;20254;-64
2023/05/14 09:56:23;;;;;;;59.37;37.63;;;18.60;1.00;;;;;;4857564;29;20226;-64
2023/05/14 09:58:51;;;;;;;50.53;33.00;;;18.20;1.00;;;;;;4854474;29;20226;-64
2023/05/14 10:01:22;;;;;;;36.33;24.43;;;18.30;1.00;;;;;;4863244;29;20251;-64
2023/05/14 10:03:50;;;;;;;45.83;30.50;;;19.20;1.00;;;;;;4858589;29;20229;-65
2023/05/14 10:06:23;;;;;;;44.03;29.07;;;19.70;1.00;;;;;;4866570;29;20242;-65
2023/05/14 10:08:55;;;;;;;39.93;27.57;;;20.00;1.00;;;;;;4850956;29;20222;-64
2023/05/14 10:11:25;;;;;;;60.13;37.20;;;20.30;1.00;;;;;;4851377;29;20259;-65
2023/05/14 10:14:02;;;;;;;55.67;35.60;;;20.40;99.90;;;;;;4867273;29;20636;-64
2023/05/14 10:16:35;;;;;;;35.83;22.60;;;20.80;99.90;;;;;;4867929;29;20678;-64
2023/05/14 10:19:07;;;;;;;35.07;23.37;;;21.40;99.90;;;;;;4877216;29;20586;-65
2023/05/14 10:21:38;;;;;;;31.55;21.75;;;22.10;1.00;;;;;;4867670;29;20195;-65
2023/05/14 10:24:07;;;;;;;40.75;27.38;;;22.30;1.00;;;;;;4867197;29;20201;-65
2023/05/14 10:26:38;;;;;;;34.38;25.30;;;22.30;1.00;;;;;;4858764;29;20227;-65
2023/05/14 10:29:06;;;;;;;34.27;24.00;;;22.00;1.00;;;;;;4863411;29;21445;-65
2023/05/14 10:31:52;;;;;;;37.33;26.05;;;22.00;1.00;;;;;;4862940;29;20228;-65
2023/05/14 10:34:36;;;;;;;47.00;30.65;;;22.20;1.00;;;;;;4871007;29;20280;-64
2023/05/14 10:37:06;;;;;;;25.50;19.63;;;21.90;1.00;;;;;;4858401;29;20227;-65
2023/05/14 10:39:41;;;;;;;27.80;19.42;;;21.90;1.00;;;;;;4868550;29;20214;-64
2023/05/14 10:42:12;;;;;;;40.63;27.15;;;22.00;1.00;;;;;;4870125;29;20279;-65
2023/05/14 10:44:50;;;;;;;42.13;29.55;;;22.30;1.00;;;;;;4864301;29;20234;-65
2023/05/14 10:47:20;;;;;;;47.35;31.35;;;22.50;1.00;;;;;;4878238;29;20548;-65
2023/05/14 10:49:51;;;;;;;43.72;30.55;;;22.40;1.00;;;;;;4869744;29;20549;-66
2023/05/14 10:52:21;;;;;;;54.90;34.10;;;22.50;1.00;;;;;;4861957;29;20240;-65
2023/05/14 10:54:51;;;;;;;54.03;35.75;;;22.70;1.00;;;;;;4866338;29;20284;-65
2023/05/14 10:57:20;;;;;;;48.58;33.30;;;22.40;1.00;;;;;;4856832;29;20223;-65
2023/05/14 10:59:52;;;;;;;57.45;36.95;;;22.20;1.00;;;;;;4855088;29;20293;-65
2023/05/14 11:02:23;;;;;;;50.25;32.97;;;22.10;1.00;;;;;;4864104;29;20236;-64
2023/05/14 11:04:57;;;;;;;37.60;24.65;;;22.40;1.00;;;;;;4874393;29;20600;-64
2023/05/14 11:07:29;;;;;;;34.63;23.15;;;22.30;1.00;;;;;;4870139;29;20225;-65
2023/05/14 11:10:03;;;;;;;47.70;32.70;;;22.50;59.50;;;;;;4861864;29;20233;-64
2023/05/14 11:12:31;;;;;;;57.17;36.45;;;22.90;1.00;;;;;;4866238;29;20653;-65
2023/05/14 11:15:02;;;;;;;56.80;36.97;;;22.80;99.90;;;;;;4862974;29;20333;-64
2023/05/14 11:17:32;;;;;;;56.30;37.73;;;22.30;1.00;;;;;;4861774;29;20995;-64
2023/05/14 11:20:01;;;;;;;42.07;28.57;;;22.40;1.00;;;;;;4865436;29;20224;-64
2023/05/14 11:22:29;;;;;;;41.53;26.73;;;22.40;1.00;;;;;;4857370;29;20657;-65
2023/05/14 11:24:57;;;;;;;30.63;21.80;;;22.30;1.00;;;;;;4845396;29;20576;-64
2023/05/14 11:27:26;;;;;;;29.03;21.60;;;22.20;1.00;;;;;;4864380;29;20219;-64
2023/05/14 11:29:54;;;;;;;21.10;15.43;;;22.50;1.00;;;;;;4867144;29;20200;-64
2023/05/14 11:32:23;;;;;;;20.60;16.00;;;22.60;1.00;;;;;;4844504;29;20632;-64
2023/05/14 11:34:53;;;;;;;15.97;14.23;;;22.80;1.00;;;;;;4844260;29;20228;-64
2023/05/14 11:37:21;;;;;;;19.67;15.10;;;22.70;1.00;;;;;;4864233;29;20653;-65
2023/05/14 11:39:50;;;;;;;20.93;16.53;;;22.70;99.90;;;;;;4870001;29;20247;-64
2023/05/14 11:42:20;;;;;;;23.43;16.77;;;22.60;1.00;;;;;;4881650;29;20301;-64
2023/05/14 11:44:50;;;;;;;26.80;18.57;;;22.40;1.00;;;;;;4865722;29;20229;-64
2023/05/14 11:47:20;;;;;;;24.27;18.57;;;22.50;1.00;;;;;;4858714;29;20240;-65
2023/05/14 11:49:48;;;;;;;23.67;19.00;;;22.50;99.90;;;;;;4844106;29;20228;-65
2023/05/14 11:52:20;;;;;;;24.07;18.77;;;22.40;1.00;;;;;;4862193;29;20287;-64
2023/05/14 11:54:49;;;;;;;32.27;21.63;;;22.20;1.00;;;;;;4865720;29;20230;-64
2023/05/14 11:57:20;;;;;;;26.40;19.00;;;22.20;1.00;;;;;;4852401;29;20675;-64
2023/05/14 11:59:54;;;;;;;22.20;15.57;;;22.20;1.00;;;;;;4867035;29;20234;-65
2023/05/14 12:02:23;;;;;;;22.07;16.10;;;22.30;1.00;;;;;;4862054;29;20234;-64
2023/05/14 12:04:53;;;;;;;26.80;17.13;;;22.40;99.90;;;;;;4862141;29;20234;-64
2023/05/14 12:07:22;;;;;;;25.33;18.20;;;22.50;1.00;;;;;;4853515;29;20629;-64
2023/05/14 12:09:51;;;;;;;28.67;18.87;;;22.60;1.00;;;;;;4861756;29;20229;-64
2023/05/14 12:12:21;;;;;;;36.00;22.70;;;22.70;1.00;;;;;;4862795;29;20207;-64
2023/05/14 12:14:51;;;;;;;29.60;19.00;;;22.50;1.00;;;;;;4861952;29;20225;-64
2023/05/14 12:17:20;;;;;;;23.67;18.00;;;22.50;1.00;;;;;;4862170;29;20696;-64
2023/05/14 12:19:50;;;;;;;22.00;14.83;;;22.40;1.00;;;;;;4878237;29;20460;-65
2023/05/14 12:22:20;;;;;;;22.20;14.47;;;22.30;1.00;;;;;;4862974;29;20574;-64
2023/05/14 12:24:55;;;;;;;21.07;14.90;;;22.20;1.00;;;;;;4874292;29;20298;-64
2023/05/14 12:27:25;;;;;;;23.20;15.10;;;22.10;1.00;;;;;;4877334;29;20597;-64
2023/05/14 12:29:59;;;;;;;26.83;17.80;;;22.10;1.00;;;;;;4870150;29;20204;-64
2023/05/14 12:32:47;;;;;;;26.83;16.97;;;22.10;34.60;;;;;;4849429;29;20229;-65
2023/05/14 12:35:16;;;;;;;26.27;16.80;;;22.10;1.00;;;;;;4869538;29;20248;-64
2023/05/14 12:37:44;;;;;;;24.87;16.57;;;22.00;1.00;;;;;;4878161;29;20227;-64
2023/05/14 12:40:14;;;;;;;28.63;15.33;;;22.10;99.90;;;;;;4880339;29;20301;-64
2023/05/14 12:42:42;;;;;;;19.97;14.80;;;22.20;1.00;;;;;;4871769;29;20235;-65
2023/05/14 12:45:11;;;;;;;16.90;13.30;;;22.10;1.00;;;;;;4873992;29;20260;-64
2023/05/14 12:47:39;;;;;;;15.53;13.93;;;22.10;1.00;;;;;;4873551;29;20314;-64
2023/05/14 12:50:08;;;;;;;19.07;13.67;;;22.10;1.00;;;;;;4849208;29;20261;-65
2023/05/14 12:52:36;;;;;;;22.50;14.17;;;22.10;1.00;;;;;;4843051;29;20261;-64
2023/05/14 12:55:08;;;;;;;32.50;20.50;;;22.00;1.00;;;;;;4866545;29;20626;-64
2023/05/14 12:57:38;;;;;;;35.83;20.50;;;21.90;99.90;;;;;;4863894;29;20208;-65